createdAt,value
2023-03-07T00:01:30.254Z,17.83
2023-03-07T00:03:57.600Z,16.45
2023-03-07T00:06:24.782Z,15.90
2023-03-07T00:08:52.579Z,17.58
2023-03-07T00:11:20.106Z,17.50
2023-03-07T00:13:47.323Z,16.92
2023-03-07T00:16:15.789Z,16.00
2023-03-07T00:18:43.847Z,16.88
2023-03-07T00:21:13.374Z,18.00
2023-03-07T00:23:41.359Z,18.25
2023-03-07T00:26:09.711Z,17.38
2023-03-07T00:28:36.899Z,15.55
2023-03-07T00:31:05.418Z,17.38
2023-03-07T00:33:32.843Z,17.83
2023-03-07T00:36:11.661Z,17.73
2023-03-07T00:38:39.027Z,17.60
2023-03-07T00:41:09.563Z,18.75
2023-03-07T00:43:36.977Z,18.58
2023-03-07T00:46:04.779Z,17.83
2023-03-07T00:48:34.101Z,17.27
2023-03-07T00:51:01.525Z,18.60
2023-03-07T00:53:28.749Z,17.00
2023-03-07T00:56:00.362Z,17.95
2023-03-07T00:58:28.625Z,18.65
2023-03-07T01:00:56.068Z,18.48
2023-03-07T01:03:23.325Z,17.67
2023-03-07T01:05:50.614Z,17.42
2023-03-07T01:08:18.025Z,17.00
2023-03-07T01:10:45.616Z,17.67
2023-03-07T01:13:12.932Z,17.95
2023-03-07T01:15:40.146Z,17.88
2023-03-07T01:18:07.263Z,18.08
2023-03-07T01:20:35.091Z,18.17
2023-03-07T01:23:02.451Z,17.15
2023-03-07T01:25:29.605Z,17.23
2023-03-07T01:27:57.163Z,17.17
2023-03-07T01:30:24.844Z,18.30
2023-03-07T01:32:55.977Z,17.92
2023-03-07T01:35:23.260Z,18.58
2023-03-07T01:37:51.083Z,16.83
2023-03-07T01:40:18.564Z,18.05
2023-03-07T01:42:45.835Z,17.23
2023-03-07T01:45:12.907Z,17.67
2023-03-07T01:47:40.438Z,17.15
2023-03-07T01:50:09.574Z,15.88
2023-03-07T01:52:39.975Z,16.75
2023-03-07T01:55:10.857Z,16.63
2023-03-07T01:57:40.082Z,16.55
2023-03-07T02:00:10.079Z,16.25
2023-03-07T02:02:38.516Z,16.95
2023-03-07T02:05:05.709Z,16.92
2023-03-07T02:07:36.027Z,16.50
2023-03-07T02:10:04.242Z,17.35
2023-03-07T02:12:31.326Z,16.15
2023-03-07T02:14:58.464Z,16.60
2023-03-07T02:17:26.622Z,16.50
2023-03-07T02:20:06.697Z,17.15
2023-03-07T02:22:33.899Z,16.52
2023-03-07T02:25:08.393Z,15.50
2023-03-07T02:27:36.670Z,16.92
2023-03-07T02:30:04.814Z,18.30
2023-03-07T02:32:31.966Z,17.48
2023-03-07T02:34:59.144Z,17.38
2023-03-07T02:37:28.039Z,16.42
2023-03-07T02:39:55.649Z,17.13
2023-03-07T02:42:24.524Z,15.90
2023-03-07T02:44:58.956Z,18.10
2023-03-07T02:47:26.191Z,16.27
2023-03-07T02:49:53.277Z,16.17
2023-03-07T02:52:21.640Z,17.27
2023-03-07T02:54:48.869Z,16.55
2023-03-07T02:57:16.494Z,16.65
2023-03-07T02:59:43.633Z,17.90
2023-03-07T03:02:10.781Z,16.63
2023-03-07T03:04:38.063Z,16.67
2023-03-07T03:07:05.342Z,16.60
2023-03-07T03:09:32.498Z,15.77
2023-03-07T03:11:59.615Z,16.80
2023-03-07T03:14:26.988Z,17.10
2023-03-07T03:16:54.500Z,17.02
2023-03-07T03:19:21.938Z,16.40
2023-03-07T03:21:49.052Z,17.55
2023-03-07T03:24:16.303Z,17.10
2023-03-07T03:26:43.380Z,16.33
2023-03-07T03:29:10.592Z,17.27
2023-03-07T03:31:37.802Z,16.45
2023-03-07T03:34:05.644Z,16.95
2023-03-07T03:36:32.798Z,17.20
2023-03-07T03:39:00.409Z,16.67
2023-03-07T03:41:27.557Z,17.40
2023-03-07T03:43:54.658Z,15.68
2023-03-07T03:46:21.891Z,16.33
2023-03-07T03:48:53.421Z,17.23
2023-03-07T03:51:20.611Z,16.75
2023-03-07T03:53:47.856Z,17.10
2023-03-07T03:56:17.181Z,18.15
2023-03-07T03:58:44.872Z,17.83
2023-03-07T04:01:12.804Z,18.27
2023-03-07T04:03:41.141Z,17.48
2023-03-07T04:06:09.543Z,16.30
2023-03-07T04:08:37.124Z,17.23
2023-03-07T04:11:04.965Z,17.15
2023-03-07T04:13:32.898Z,16.17
2023-03-07T04:16:00.153Z,18.45
2023-03-07T04:18:27.305Z,16.27
2023-03-07T04:20:54.634Z,16.65
2023-03-07T04:23:22.878Z,15.68
2023-03-07T04:25:49.971Z,15.63
2023-03-07T04:28:17.836Z,15.65
2023-03-07T04:30:45.308Z,14.20
2023-03-07T04:33:12.846Z,14.20
2023-03-07T04:35:40.264Z,12.98
2023-03-07T04:38:07.437Z,13.20
2023-03-07T04:40:35.275Z,12.40
2023-03-07T04:43:03.292Z,13.43
2023-03-07T04:45:31.392Z,12.93
2023-03-07T04:47:58.521Z,12.50
2023-03-07T04:50:25.670Z,13.70
2023-03-07T04:52:52.800Z,14.80
2023-03-07T04:55:19.955Z,14.52
2023-03-07T04:57:47.647Z,14.77
2023-03-07T05:00:15.270Z,13.45
2023-03-07T05:02:42.418Z,14.35
2023-03-07T05:05:09.579Z,13.57
2023-03-07T05:07:36.884Z,14.02
2023-03-07T05:10:04.153Z,13.48
2023-03-07T05:12:31.219Z,13.10
2023-03-07T05:14:58.326Z,13.25
2023-03-07T05:17:25.431Z,13.55
2023-03-07T05:19:54.814Z,13.50
2023-03-07T05:22:22.012Z,13.18
2023-03-07T05:24:49.085Z,14.35
2023-03-07T05:27:16.528Z,14.60
2023-03-07T05:29:43.664Z,15.30
2023-03-07T05:32:11.252Z,15.05
2023-03-07T05:34:38.472Z,16.23
2023-03-07T05:37:05.762Z,14.13
2023-03-07T05:39:32.908Z,13.85
2023-03-07T05:41:59.992Z,13.63
2023-03-07T05:44:27.120Z,12.88
2023-03-07T05:46:54.201Z,12.65
2023-03-07T05:49:21.308Z,13.15
2023-03-07T05:51:48.425Z,12.30
2023-03-07T05:54:15.520Z,11.63
2023-03-07T05:56:42.604Z,10.73
2023-03-07T05:59:12.838Z,10.88
2023-03-07T06:01:39.999Z,11.13
2023-03-07T06:04:07.097Z,9.82
2023-03-07T06:06:34.244Z,10.35
2023-03-07T06:09:01.400Z,11.88
2023-03-07T06:11:28.476Z,12.15
2023-03-07T06:13:55.919Z,11.68
2023-03-07T06:16:23.121Z,13.27
2023-03-07T06:18:50.297Z,12.48
2023-03-07T06:21:18.725Z,13.15
2023-03-07T06:23:46.283Z,13.02
2023-03-07T06:26:13.648Z,14.25
2023-03-07T06:28:41.009Z,13.15
2023-03-07T06:31:15.992Z,13.40
2023-03-07T06:33:43.535Z,13.73
2023-03-07T06:36:12.404Z,13.95
2023-03-07T06:38:40.098Z,13.95
2023-03-07T06:41:07.343Z,13.60
2023-03-07T06:43:34.740Z,14.18
2023-03-07T06:46:02.183Z,13.73
2023-03-07T06:48:29.502Z,13.85
2023-03-07T06:50:56.832Z,13.85
2023-03-07T06:53:23.955Z,13.10
2023-03-07T06:55:52.259Z,13.50
2023-03-07T06:58:19.707Z,14.32
2023-03-07T07:00:46.807Z,14.38
2023-03-07T07:03:17.254Z,13.48
2023-03-07T07:05:44.500Z,13.43
2023-03-07T07:08:11.685Z,13.23
2023-03-07T07:10:39.163Z,13.75
2023-03-07T07:13:06.255Z,13.88
2023-03-07T07:15:33.380Z,13.40
2023-03-07T07:18:00.549Z,13.63
2023-03-07T07:20:28.462Z,13.15
2023-03-07T07:22:55.614Z,13.45
2023-03-07T07:25:22.767Z,14.45
2023-03-07T07:27:49.861Z,15.10
2023-03-07T07:30:17.013Z,13.77
2023-03-07T07:32:45.108Z,14.00
2023-03-07T07:35:12.819Z,14.30
2023-03-07T07:37:40.357Z,13.20
2023-03-07T07:40:10.558Z,13.27
2023-03-07T07:42:37.687Z,13.23
2023-03-07T07:45:06.412Z,14.75
2023-03-07T07:47:33.630Z,14.00
2023-03-07T07:50:00.769Z,15.15
2023-03-07T07:52:27.839Z,14.70
2023-03-07T07:54:55.033Z,17.00
2023-03-07T07:57:22.783Z,18.10
2023-03-07T07:59:50.010Z,15.07
2023-03-07T08:02:17.181Z,14.52
2023-03-07T08:04:46.063Z,16.42
2023-03-07T08:07:14.161Z,17.13
2023-03-07T08:09:41.287Z,15.77
2023-03-07T08:12:10.188Z,16.77
2023-03-07T08:14:37.315Z,14.77
2023-03-07T08:17:04.518Z,15.00
2023-03-07T08:19:31.637Z,14.30
2023-03-07T08:21:59.506Z,14.18
2023-03-07T08:24:39.927Z,13.82
2023-03-07T08:27:07.525Z,13.07
2023-03-07T08:29:35.328Z,13.98
2023-03-07T08:32:02.550Z,14.68
2023-03-07T08:34:29.766Z,16.13
2023-03-07T08:36:56.904Z,16.92
2023-03-07T08:39:23.991Z,15.32
2023-03-07T08:41:51.116Z,13.00
2023-03-07T08:44:18.282Z,13.52
2023-03-07T08:46:45.403Z,12.38
2023-03-07T08:49:12.573Z,13.85
2023-03-07T08:51:39.724Z,12.80
2023-03-07T08:54:06.850Z,12.55
2023-03-07T08:56:33.931Z,13.05
2023-03-07T08:59:01.073Z,12.93
2023-03-07T09:01:28.169Z,12.93
2023-03-07T09:03:55.364Z,12.27
2023-03-07T09:06:22.593Z,13.43
2023-03-07T09:08:50.356Z,13.40
2023-03-07T09:11:17.924Z,13.15
2023-03-07T09:13:52.061Z,13.70
2023-03-07T09:16:20.279Z,13.50
2023-03-07T09:18:47.557Z,13.55
2023-03-07T09:21:14.652Z,13.43
2023-03-07T09:23:43.236Z,13.85
2023-03-07T09:26:10.565Z,14.35
2023-03-07T09:28:37.640Z,12.98
2023-03-07T09:31:11.715Z,13.90
2023-03-07T09:33:38.868Z,13.15
2023-03-07T09:36:06.902Z,13.02
2023-03-07T09:38:34.494Z,12.82
2023-03-07T09:41:13.731Z,12.52
2023-03-07T09:43:48.037Z,14.02
2023-03-07T09:46:31.121Z,13.48
2023-03-07T09:49:01.292Z,12.65
2023-03-07T09:51:36.970Z,13.02
2023-03-07T09:54:10.467Z,13.85
2023-03-07T09:56:45.227Z,12.38
2023-03-07T09:59:23.811Z,12.23
2023-03-07T10:02:17.478Z,11.77
2023-03-07T10:04:47.496Z,11.80
2023-03-07T10:07:16.145Z,11.55
2023-03-07T10:09:44.328Z,12.18
2023-03-07T10:12:18.394Z,12.55
2023-03-07T10:15:04.299Z,11.88
2023-03-07T10:17:35.400Z,12.77
2023-03-07T10:22:34.329Z,13.32
2023-03-07T10:25:07.496Z,12.38
2023-03-07T10:27:34.640Z,12.18
2023-03-07T10:30:07.324Z,12.05
2023-03-07T10:32:44.110Z,12.07
2023-03-07T10:35:14.044Z,11.40
2023-03-07T10:37:43.883Z,12.40
2023-03-07T10:40:31.670Z,10.82
2023-03-07T10:42:59.448Z,11.32
2023-03-07T10:45:29.811Z,11.45
2023-03-07T10:47:59.296Z,13.20
2023-03-07T10:50:34.695Z,13.32
2023-03-07T10:53:03.901Z,11.80
2023-03-07T10:55:30.995Z,10.93
2023-03-07T10:58:14.043Z,11.35
2023-03-07T11:00:41.648Z,12.05
2023-03-07T11:03:52.142Z,11.98
2023-03-07T11:06:29.738Z,12.50
2023-03-07T11:08:57.262Z,12.40
2023-03-07T11:11:26.576Z,12.30
2023-03-07T11:14:07.316Z,11.15
2023-03-07T11:16:34.728Z,12.43
2023-03-07T11:19:04.057Z,12.48
2023-03-07T11:21:35.464Z,12.77
2023-03-07T11:24:06.770Z,12.57
2023-03-07T11:29:06.876Z,10.70
2023-03-07T11:31:42.846Z,12.80
2023-03-07T11:34:28.952Z,10.75
2023-03-07T11:36:57.435Z,12.45
2023-03-07T11:39:27.780Z,12.05
2023-03-07T11:42:03.975Z,12.40
2023-03-07T11:44:42.935Z,13.48
2023-03-07T11:47:20.179Z,13.45
2023-03-07T11:50:05.531Z,12.27
2023-03-07T11:52:52.389Z,12.20
2023-03-07T11:55:27.182Z,12.90
2023-03-07T11:57:54.427Z,11.88
2023-03-07T12:00:41.764Z,11.80
2023-03-07T12:03:23.267Z,12.32
2023-03-07T12:05:56.548Z,12.40
2023-03-07T12:08:53.056Z,11.82
2023-03-07T12:11:38.824Z,12.88
2023-03-07T12:14:21.995Z,12.05
2023-03-07T12:16:49.051Z,11.93
2023-03-07T12:19:22.124Z,12.88
2023-03-07T12:22:08.849Z,11.82
2023-03-07T12:24:41.136Z,11.48
2023-03-07T12:27:12.571Z,11.85
2023-03-07T12:29:39.674Z,11.23
2023-03-07T12:32:11.968Z,11.85
2023-03-07T12:34:41.986Z,10.75
2023-03-07T12:37:13.980Z,12.27
2023-03-07T12:39:53.088Z,10.77
2023-03-07T12:42:43.348Z,10.60
2023-03-07T12:45:12.494Z,11.77
2023-03-07T12:47:40.021Z,10.80
2023-03-07T12:50:17.070Z,10.75
2023-03-07T12:52:49.170Z,11.45
2023-03-07T12:55:31.925Z,11.77
2023-03-07T12:58:04.156Z,12.68
2023-03-07T13:00:31.698Z,12.82
2023-03-07T13:03:02.672Z,12.20
2023-03-07T13:05:30.539Z,12.48
2023-03-07T13:07:57.944Z,12.45
2023-03-07T13:10:25.537Z,12.93
2023-03-07T13:12:53.372Z,13.77
2023-03-07T13:15:23.938Z,12.27
2023-03-07T13:17:51.097Z,13.07
2023-03-07T13:20:38.010Z,15.40
2023-03-07T13:23:25.587Z,12.02
2023-03-07T13:26:06.756Z,11.50
2023-03-07T13:28:36.319Z,12.65
2023-03-07T13:31:26.551Z,12.18
2023-03-07T13:33:53.873Z,12.25
2023-03-07T13:36:38.542Z,13.25
2023-03-07T13:39:26.041Z,12.25
2023-03-07T13:41:53.241Z,12.80
2023-03-07T13:44:46.528Z,13.55
2023-03-07T13:47:32.472Z,13.15
2023-03-07T13:49:59.624Z,13.70
2023-03-07T13:52:32.458Z,13.25
2023-03-07T13:55:00.973Z,12.15
2023-03-07T13:57:31.000Z,13.38
2023-03-07T13:59:58.111Z,14.10
2023-03-07T14:02:25.406Z,14.25
2023-03-07T14:04:55.803Z,13.07
2023-03-07T14:07:31.936Z,12.88
2023-03-07T14:10:19.564Z,12.45
2023-03-07T14:12:56.888Z,13.45
2023-03-07T14:15:42.878Z,12.77
2023-03-07T14:18:25.011Z,12.02
2023-03-07T14:21:01.046Z,10.32
2023-03-07T14:23:41.087Z,9.75
2023-03-07T14:26:11.327Z,10.88
2023-03-07T14:28:47.702Z,10.43
2023-03-07T14:31:23.147Z,9.82
2023-03-07T14:33:50.332Z,10.98
2023-03-07T14:36:19.544Z,11.77
2023-03-07T14:38:47.046Z,11.23
2023-03-07T14:41:37.996Z,11.45
2023-03-07T14:44:17.674Z,10.75
2023-03-07T14:47:03.549Z,10.23
2023-03-07T14:49:37.779Z,10.00
2023-03-07T14:52:05.471Z,9.63
2023-03-07T14:54:34.190Z,9.65
2023-03-07T14:57:05.824Z,10.18
2023-03-07T15:02:18.645Z,10.20
2023-03-07T15:04:54.346Z,13.50
2023-03-07T15:07:22.592Z,10.43
2023-03-07T15:09:49.674Z,9.88
2023-03-07T15:12:18.793Z,9.20
2023-03-07T15:14:47.745Z,9.07
2023-03-07T15:17:19.916Z,9.55
2023-03-07T15:19:50.160Z,8.98
2023-03-07T15:22:24.669Z,9.43
2023-03-07T15:24:52.065Z,9.07
2023-03-07T15:30:53.220Z,10.27
2023-03-07T15:33:20.788Z,9.93
2023-03-07T15:36:06.208Z,9.48
2023-03-07T15:38:33.880Z,9.82
2023-03-07T15:41:01.027Z,9.65
2023-03-07T15:43:29.448Z,9.57
2023-03-07T15:46:00.042Z,9.50
2023-03-07T15:48:43.607Z,9.13
2023-03-07T15:51:14.830Z,9.55
2023-03-07T15:53:42.847Z,10.38
2023-03-07T15:56:24.801Z,10.75
2023-03-07T15:58:52.242Z,11.30
2023-03-07T16:01:23.906Z,11.02
2023-03-07T16:03:52.374Z,13.07
2023-03-07T16:06:31.470Z,11.50
2023-03-07T16:08:58.653Z,11.52
2023-03-07T16:11:25.726Z,12.10
2023-03-07T16:13:52.879Z,13.07
2023-03-07T16:16:24.898Z,12.23
2023-03-07T16:18:52.559Z,12.15
2023-03-07T16:21:20.480Z,12.00
2023-03-07T16:23:47.875Z,12.50
2023-03-07T16:26:16.690Z,12.50
2023-03-07T16:28:44.315Z,11.90
2023-03-07T16:31:16.208Z,11.30
2023-03-07T16:33:44.029Z,13.38
2023-03-07T16:36:11.328Z,11.95
2023-03-07T16:38:38.678Z,14.15
2023-03-07T16:41:12.096Z,12.90
2023-03-07T16:43:39.483Z,13.70
2023-03-07T16:46:07.788Z,12.82
2023-03-07T16:48:35.430Z,14.00
2023-03-07T16:51:02.805Z,14.85
2023-03-07T16:53:29.918Z,14.20
2023-03-07T16:55:58.213Z,13.68
2023-03-07T16:58:29.978Z,15.38
2023-03-07T17:00:58.941Z,14.90
2023-03-07T17:03:26.604Z,14.73
2023-03-07T17:05:53.781Z,14.43
2023-03-07T17:08:20.926Z,13.48
2023-03-07T17:10:48.170Z,13.52
2023-03-07T17:13:17.613Z,13.27
2023-03-07T17:15:46.100Z,13.40
2023-03-07T17:18:13.657Z,15.93
2023-03-07T17:20:41.468Z,15.82
2023-03-07T17:23:08.985Z,14.23
2023-03-07T17:25:36.194Z,19.27
2023-03-07T17:28:05.538Z,19.45
2023-03-07T17:30:33.170Z,18.17
2023-03-07T17:33:01.195Z,17.38
2023-03-07T17:35:28.484Z,19.13
2023-03-07T17:37:55.727Z,19.48
2023-03-07T17:40:23.130Z,18.90
2023-03-07T17:42:51.252Z,19.00
2023-03-07T17:45:18.880Z,15.07
2023-03-07T17:47:45.987Z,19.42
2023-03-07T17:50:13.457Z,19.45
2023-03-07T17:52:40.714Z,20.67
2023-03-07T17:55:11.140Z,20.35
2023-03-07T17:57:38.473Z,24.48
2023-03-07T18:00:14.121Z,26.88
2023-03-07T18:02:45.119Z,20.23
2023-03-07T18:05:13.145Z,30.00
2023-03-07T18:07:41.348Z,22.02
2023-03-07T18:10:09.714Z,20.55
2023-03-07T18:12:39.132Z,20.20
2023-03-07T18:15:12.898Z,19.58
2023-03-07T18:17:47.763Z,22.33
2023-03-07T18:20:15.709Z,22.00
2023-03-07T18:22:43.120Z,17.45
2023-03-07T18:25:11.880Z,16.45
2023-03-07T18:27:39.060Z,16.52
2023-03-07T18:30:06.463Z,19.30
2023-03-07T18:32:34.232Z,16.42
2023-03-07T18:35:01.561Z,16.17
2023-03-07T18:37:28.867Z,16.38
2023-03-07T18:39:56.066Z,18.48
2023-03-07T18:42:23.287Z,18.65
2023-03-07T18:44:50.616Z,20.70
2023-03-07T18:47:17.687Z,21.00
2023-03-07T18:49:45.355Z,22.25
2023-03-07T18:52:12.423Z,21.13
2023-03-07T18:54:39.566Z,23.35
2023-03-07T18:57:06.704Z,21.38
2023-03-07T18:59:33.828Z,23.40
2023-03-07T19:02:03.102Z,23.27
2023-03-07T19:04:31.462Z,22.25
2023-03-07T19:07:00.562Z,23.48
2023-03-07T19:09:27.943Z,30.10
2023-03-07T19:11:55.305Z,24.60
2023-03-07T19:14:22.398Z,23.65
2023-03-07T19:16:49.608Z,24.02
2023-03-07T19:19:16.945Z,23.52
2023-03-07T19:21:44.124Z,22.92
2023-03-07T19:24:12.263Z,23.25
2023-03-07T19:26:41.615Z,23.25
2023-03-07T19:29:09.833Z,22.20
2023-03-07T19:31:37.044Z,25.40
2023-03-07T19:34:06.311Z,24.58
2023-03-07T19:36:35.192Z,23.90
2023-03-07T19:39:02.461Z,23.08
2023-03-07T19:41:30.748Z,24.63
2023-03-07T19:43:58.520Z,22.80
2023-03-07T19:46:25.673Z,23.50
2023-03-07T19:48:52.961Z,22.80
2023-03-07T19:51:22.551Z,23.27
2023-03-07T19:53:50.069Z,23.00
2023-03-07T19:56:21.803Z,22.38
2023-03-07T19:58:49.136Z,23.08
2023-03-07T20:01:17.513Z,23.10
2023-03-07T20:03:45.108Z,21.88
2023-03-07T20:06:14.962Z,22.92
2023-03-07T20:08:42.086Z,22.25
2023-03-07T20:11:13.774Z,23.15
2023-03-07T20:13:41.796Z,24.90
2023-03-07T20:16:10.461Z,24.33
2023-03-07T20:18:38.404Z,22.42
2023-03-07T20:21:09.683Z,23.92
2023-03-07T20:23:36.907Z,24.13
2023-03-07T20:26:14.056Z,26.65
2023-03-07T20:28:41.262Z,23.75
2023-03-07T20:31:09.575Z,24.98
2023-03-07T20:33:37.491Z,25.77
2023-03-07T20:36:06.217Z,28.38
2023-03-07T20:38:34.114Z,29.65
2023-03-07T20:41:05.562Z,28.50
2023-03-07T20:46:03.810Z,28.83
2023-03-07T20:48:31.072Z,23.67
2023-03-07T20:51:05.204Z,31.40
2023-03-07T20:53:32.626Z,34.08
2023-03-07T20:56:04.228Z,36.58
2023-03-07T20:58:31.548Z,33.97
2023-03-07T21:00:59.091Z,30.50
2023-03-07T21:03:26.571Z,30.50
2023-03-07T21:06:00.681Z,30.20
2023-03-07T21:08:29.212Z,29.83
2023-03-07T21:11:06.686Z,29.10
2023-03-07T21:13:35.925Z,32.50
2023-03-07T21:16:05.286Z,31.17
2023-03-07T21:18:32.553Z,30.15
2023-03-07T21:21:03.522Z,32.15
2023-03-07T21:23:30.782Z,31.08
2023-03-07T21:26:01.659Z,29.38
2023-03-07T21:28:28.765Z,32.78
2023-03-07T21:31:02.580Z,34.08
2023-03-07T21:33:30.255Z,31.95
2023-03-07T21:35:57.777Z,30.90
2023-03-07T21:38:25.202Z,32.13
2023-03-07T21:40:53.990Z,32.38
2023-03-07T21:43:21.628Z,32.60
2023-03-07T21:45:49.069Z,30.55
2023-03-07T21:48:19.578Z,29.95
2023-03-07T21:50:48.440Z,29.80
2023-03-07T21:53:15.740Z,29.42
2023-03-07T21:55:49.691Z,30.30
2023-03-07T21:58:17.007Z,29.75
2023-03-07T22:00:44.120Z,32.40
2023-03-07T22:03:11.234Z,36.35
2023-03-07T22:05:38.994Z,30.30
2023-03-07T22:08:06.154Z,28.52
2023-03-07T22:10:33.585Z,28.75
2023-03-07T22:13:00.804Z,28.15
2023-03-07T22:15:28.246Z,28.17
2023-03-07T22:17:55.644Z,25.75
2023-03-07T22:20:22.989Z,25.25
2023-03-07T22:22:50.100Z,25.05
2023-03-07T22:25:17.248Z,23.67
2023-03-07T22:27:45.404Z,26.10
2023-03-07T22:30:12.850Z,22.42
2023-03-07T22:32:40.073Z,23.05
2023-03-07T22:35:07.530Z,22.45
2023-03-07T22:37:34.718Z,22.98
2023-03-07T22:40:03.206Z,21.92
2023-03-07T22:42:30.392Z,21.88
2023-03-07T22:44:57.534Z,21.95
2023-03-07T22:47:24.691Z,21.00
2023-03-07T22:49:51.844Z,20.77
2023-03-07T22:52:18.946Z,22.40
2023-03-07T22:54:46.072Z,20.83
2023-03-07T22:57:13.299Z,21.15
2023-03-07T22:59:40.429Z,20.98
2023-03-07T23:02:07.515Z,20.73
2023-03-07T23:04:34.702Z,21.15
2023-03-07T23:07:01.872Z,22.35
2023-03-07T23:09:28.969Z,21.73
2023-03-07T23:11:56.100Z,22.60
2023-03-07T23:14:25.785Z,23.90
2023-03-07T23:16:52.854Z,22.27
2023-03-07T23:19:20.917Z,24.10
2023-03-07T23:21:48.064Z,23.38
2023-03-07T23:24:15.179Z,23.85
2023-03-07T23:26:42.403Z,22.60
2023-03-07T23:29:11.558Z,24.10
2023-03-07T23:31:39.612Z,23.83
2023-03-07T23:34:08.104Z,24.83
2023-03-07T23:36:35.695Z,25.58
2023-03-07T23:39:03.432Z,25.90
2023-03-07T23:41:30.607Z,27.45
2023-03-07T23:43:59.237Z,24.75
2023-03-07T23:46:26.773Z,25.25
2023-03-07T23:48:54.244Z,25.13
2023-03-07T23:51:21.743Z,26.48
2023-03-07T23:53:49.278Z,27.15
2023-03-07T23:56:16.700Z,28.55
2023-03-07T23:58:44.042Z,27.83
